Time,TemperatureF,DewpointF,PressureIn,WindDirection,WindDirectionDegrees,WindSpeedMPH,WindSpeedGustMPH,Humidity,HourlyPrecipIn,Conditions,Clouds,dailyrainin,SoftwareType,DateUTC
2013-10-19 00:02:00,50.0,40.2,29.91,WNW,293,0.0,0.0,69,0.00,,,0.00,WSDL version 420,2013-10-19 04:02:00,
2013-10-19 00:04:00,50.0,40.1,29.91,WNW,293,0.0,0.0,68,0.00,,,0.00,WSDL version 420,2013-10-19 04:04:00,
2013-10-19 00:05:00,50.0,40.1,29.91,WNW,293,0.0,0.0,69,0.00,,,0.00,WSDL version 420,2013-10-19 04:05:00,
2013-10-19 00:10:00,49.8,40.1,29.91,WNW,293,0.0,0.0,69,0.00,,,0.00,WSDL version 420,2013-10-19 04:10:00,
2013-10-19 00:13:00,49.7,40.0,29.91,WNW,293,0.0,0.0,69,0.00,,,0.00,WSDL version 420,2013-10-19 04:13:00,
2013-10-19 00:19:00,49.2,39.6,29.91,WNW,293,0.0,0.0,70,0.00,,,0.00,WSDL version 420,2013-10-19 04:19:00,
2013-10-19 00:21:00,49.0,39.5,29.91,WNW,293,0.0,0.0,70,0.00,,,0.00,WSDL version 420,2013-10-19 04:21:00,
2013-10-19 00:27:00,48.7,39.3,29.91,WNW,293,0.0,0.0,70,0.00,,,0.00,WSDL version 420,2013-10-19 04:27:00,
2013-10-19 00:33:00,48.9,39.8,29.91,WNW,293,0.0,0.0,71,0.00,,,0.00,WSDL version 420,2013-10-19 04:33:00,
2013-10-19 00:39:00,48.9,39.9,29.91,WNW,293,0.0,0.0,71,0.00,,,0.00,WSDL version 420,2013-10-19 04:39:00,
2013-10-19 00:45:00,48.7,40.0,29.91,WNW,293,0.0,0.0,72,0.00,,,0.00,WSDL version 420,2013-10-19 04:45:00,
2013-10-19 00:51:00,48.6,40.0,29.91,WNW,293,0.0,0.0,72,0.00,,,0.00,WSDL version 420,2013-10-19 04:51:00,
2013-10-19 00:57:00,48.2,39.8,29.91,WNW,293,0.0,0.0,73,0.00,,,0.00,WSDL version 420,2013-10-19 04:57:00,
2013-10-19 01:03:00,48.0,39.7,29.91,WNW,293,0.0,0.0,73,0.00,,,0.00,WSDL version 420,2013-10-19 05:03:00,
2013-10-19 01:09:00,48.2,40.1,29.91,WNW,293,0.0,0.0,74,0.00,,,0.00,WSDL version 420,2013-10-19 05:09:00,
2013-10-19 01:15:00,48.0,40.1,29.91,WNW,293,0.0,0.0,74,0.00,,,0.00,WSDL version 420,2013-10-19 05:15:00,
2013-10-19 01:21:00,48.1,40.3,29.91,WNW,293,0.0,0.0,74,0.00,,,0.00,WSDL version 420,2013-10-19 05:21:00,
2013-10-19 01:27:00,48.0,40.1,29.91,North,-999,-999.0,-999.0,74,0.00,,,0.00,WSDL version 420,2013-10-19 05:27:00,
2013-10-19 01:33:00,47.7,40.0,29.91,North,-999,-999.0,-999.0,75,0.00,,,0.00,WSDL version 420,2013-10-19 05:33:00,
2013-10-19 01:39:00,47.8,40.1,29.91,WNW,293,0.0,0.0,74,0.00,,,0.00,WSDL version 420,2013-10-19 05:39:00,
2013-10-19 01:45:00,47.7,39.8,29.91,WNW,293,0.0,0.0,74,0.00,,,0.00,WSDL version 420,2013-10-19 05:45:00,
2013-10-19 01:51:00,47.4,39.6,29.91,WNW,293,0.0,0.0,74,0.00,,,0.00,WSDL version 420,2013-10-19 05:51:00,
2013-10-19 01:57:00,47.5,40.2,29.91,WNW,293,0.0,0.0,76,0.00,,,0.00,WSDL version 420,2013-10-19 05:57:00,
2013-10-19 02:03:00,47.3,40.0,29.91,WNW,293,0.0,0.0,76,0.00,,,0.00,WSDL version 420,2013-10-19 06:03:00,
2013-10-19 02:09:00,47.3,39.9,29.91,WNW,293,0.0,0.0,75,0.00,,,0.00,WSDL version 420,2013-10-19 06:09:00,
2013-10-19 02:15:00,47.3,39.8,29.91,North,-999,-999.0,-999.0,75,0.00,,,0.00,WSDL version 420,2013-10-19 06:15:00,
2013-10-19 02:21:00,47.1,39.6,29.91,WNW,293,0.0,0.0,75,0.00,,,0.00,WSDL version 420,2013-10-19 06:21:00,
2013-10-19 02:27:00,46.9,39.4,29.91,WNW,293,0.0,0.0,75,0.00,,,0.00,WSDL version 420,2013-10-19 06:27:00,
2013-10-19 02:33:00,46.6,39.2,29.91,WNW,293,0.0,0.0,76,0.00,,,0.00,WSDL version 420,2013-10-19 06:33:00,
2013-10-19 02:39:00,46.5,39.4,29.91,WNW,293,0.0,0.0,76,0.00,,,0.00,WSDL version 420,2013-10-19 06:39:00,
2013-10-19 02:45:00,46.7,39.5,29.91,WNW,293,0.0,0.0,76,0.00,,,0.00,WSDL version 420,2013-10-19 06:45:00,
2013-10-19 02:51:00,46.6,39.4,29.91,WNW,293,0.0,0.0,76,0.00,,,0.00,WSDL version 420,2013-10-19 06:51:00,
2013-10-19 02:57:00,46.4,39.3,29.91,WNW,293,0.0,0.0,76,0.00,,,0.00,WSDL version 420,2013-10-19 06:57:00,
2013-10-19 03:03:00,46.2,39.1,29.91,North,-999,-999.0,-999.0,76,0.00,,,0.00,WSDL version 420,2013-10-19 07:03:00,
2013-10-19 03:09:00,46.0,39.2,29.91,North,-999,-999.0,-999.0,77,0.00,,,0.00,WSDL version 420,2013-10-19 07:09:00,
2013-10-19 03:15:00,46.1,39.5,29.91,North,-999,-999.0,-999.0,78,0.00,,,0.00,WSDL version 420,2013-10-19 07:15:00,
2013-10-19 03:22:00,46.0,39.5,29.91,North,-999,-999.0,-999.0,78,0.00,,,0.00,WSDL version 420,2013-10-19 07:22:00,
2013-10-19 03:28:00,46.0,39.6,29.91,WNW,293,0.0,0.0,78,0.00,,,0.00,WSDL version 420,2013-10-19 07:28:00,
2013-10-19 03:34:00,46.0,39.5,29.91,WNW,293,0.0,0.0,78,0.00,,,0.00,WSDL version 420,2013-10-19 07:34:00,
2013-10-19 03:40:00,45.9,39.4,29.91,WNW,293,0.0,0.0,78,0.00,,,0.00,WSDL version 420,2013-10-19 07:40:00,
2013-10-19 03:46:00,45.8,39.4,29.91,WNW,293,0.0,0.0,78,0.00,,,0.00,WSDL version 420,2013-10-19 07:46:00,
2013-10-19 03:52:00,45.6,39.1,29.91,North,-999,-999.0,-999.0,77,0.00,,,0.00,WSDL version 420,2013-10-19 07:52:00,
2013-10-19 03:58:00,45.5,38.7,29.91,North,-999,-999.0,-999.0,77,0.00,,,0.00,WSDL version 420,2013-10-19 07:58:00,
2013-10-19 04:04:00,45.4,38.9,29.91,WNW,293,0.0,0.0,78,0.00,,,0.00,WSDL version 420,2013-10-19 08:04:00,
2013-10-19 04:10:00,45.4,39.0,29.91,WNW,293,0.0,0.0,78,0.00,,,0.00,WSDL version 420,2013-10-19 08:10:00,
2013-10-19 04:16:00,45.3,38.9,29.91,WNW,293,0.0,0.0,78,0.00,,,0.00,WSDL version 420,2013-10-19 08:16:00,
2013-10-19 04:22:00,45.1,38.7,29.91,North,-999,-999.0,-999.0,78,0.00,,,0.00,WSDL version 420,2013-10-19 08:22:00,
2013-10-19 04:28:00,44.9,38.9,29.91,North,-999,-999.0,-999.0,79,0.00,,,0.00,WSDL version 420,2013-10-19 08:28:00,
2013-10-19 04:34:00,45.1,38.8,29.91,WNW,293,0.0,0.0,78,0.00,,,0.00,WSDL version 420,2013-10-19 08:34:00,
2013-10-19 04:40:00,45.0,38.8,29.91,WNW,293,0.0,0.0,79,0.00,,,0.00,WSDL version 420,2013-10-19 08:40:00,
2013-10-19 04:46:00,44.9,38.8,29.91,WNW,293,0.0,0.0,79,0.00,,,0.00,WSDL version 420,2013-10-19 08:46:00,
2013-10-19 04:52:00,44.8,38.7,29.91,WNW,293,0.0,0.0,79,0.00,,,0.00,WSDL version 420,2013-10-19 08:52:00,
2013-10-19 04:58:00,45.0,38.9,29.91,WNW,293,0.0,0.0,80,0.00,,,0.00,WSDL version 420,2013-10-19 08:58:00,
2013-10-19 05:04:00,44.8,39.0,29.91,North,-999,-999.0,-999.0,80,0.00,,,0.00,WSDL version 420,2013-10-19 09:04:00,
2013-10-19 05:10:00,44.8,38.7,29.91,North,-999,-999.0,-999.0,79,0.00,,,0.00,WSDL version 420,2013-10-19 09:10:00,
2013-10-19 05:16:00,44.8,38.8,29.91,North,-999,-999.0,-999.0,79,0.00,,,0.00,WSDL version 420,2013-10-19 09:16:00,
2013-10-19 05:22:00,44.7,38.6,29.91,North,-999,-999.0,-999.0,79,0.00,,,0.00,WSDL version 420,2013-10-19 09:22:00,
2013-10-19 05:28:00,44.3,38.4,29.91,North,-999,-999.0,-999.0,80,0.00,,,0.00,WSDL version 420,2013-10-19 09:28:00,
2013-10-19 05:34:00,44.2,38.5,29.91,WNW,293,0.0,0.0,80,0.00,,,0.00,WSDL version 420,2013-10-19 09:34:00,
2013-10-19 05:40:00,44.1,38.0,29.91,WNW,293,0.0,0.0,79,0.00,,,0.00,WSDL version 420,2013-10-19 09:40:00,
2013-10-19 05:46:00,43.9,37.9,29.91,WNW,293,0.0,0.0,79,0.00,,,0.00,WSDL version 420,2013-10-19 09:46:00,
2013-10-19 05:52:00,43.8,38.0,29.91,WNW,293,0.0,0.0,80,0.00,,,0.00,WSDL version 420,2013-10-19 09:52:00,
2013-10-19 05:58:00,44.2,38.8,29.91,WNW,293,0.0,0.0,81,0.00,,,0.00,WSDL version 420,2013-10-19 09:58:00,
2013-10-19 06:04:00,44.1,38.6,29.91,North,-999,-999.0,-999.0,81,0.00,,,0.00,WSDL version 420,2013-10-19 10:04:00,
2013-10-19 06:10:00,44.1,38.6,29.91,North,-999,-999.0,-999.0,81,0.00,,,0.00,WSDL version 420,2013-10-19 10:10:00,
2013-10-19 06:17:00,44.0,38.7,29.91,North,-999,-999.0,-999.0,81,0.00,,,0.00,WSDL version 420,2013-10-19 10:17:00,
2013-10-19 06:23:00,44.1,38.6,29.91,WNW,293,0.0,0.0,81,0.00,,,0.00,WSDL version 420,2013-10-19 10:23:00,
2013-10-19 06:29:00,43.9,38.4,29.91,WNW,293,0.0,0.0,80,0.00,,,0.00,WSDL version 420,2013-10-19 10:29:00,
2013-10-19 06:35:00,43.5,38.4,29.91,WNW,293,0.0,0.0,82,0.00,,,0.00,WSDL version 420,2013-10-19 10:35:00,
2013-10-19 06:41:00,43.8,38.6,29.88,WNW,293,0.0,0.0,82,0.00,,,0.00,WSDL version 420,2013-10-19 10:41:00,
2013-10-19 06:47:00,43.7,38.6,29.88,WNW,293,0.0,0.0,82,0.00,,,0.00,WSDL version 420,2013-10-19 10:47:00,
2013-10-19 06:53:00,43.8,38.7,29.88,WNW,293,0.0,0.0,82,0.00,,,0.00,WSDL version 420,2013-10-19 10:53:00,
2013-10-19 06:59:00,43.8,38.7,29.88,WNW,293,0.0,0.0,82,0.00,,,0.00,WSDL version 420,2013-10-19 10:59:00,
2013-10-19 07:05:00,43.6,38.5,29.88,North,-999,-999.0,-999.0,82,0.00,,,0.00,WSDL version 420,2013-10-19 11:05:00,
2013-10-19 07:11:00,43.6,38.8,29.88,North,-999,-999.0,-999.0,82,0.00,,,0.00,WSDL version 420,2013-10-19 11:11:00,
2013-10-19 07:17:00,43.4,38.6,29.88,WNW,293,0.0,0.0,83,0.00,,,0.00,WSDL version 420,2013-10-19 11:17:00,
2013-10-19 07:23:00,43.5,38.8,29.88,WNW,293,0.0,0.0,83,0.00,,,0.00,WSDL version 420,2013-10-19 11:23:00,
2013-10-19 07:29:00,43.6,38.9,29.88,WNW,293,0.0,0.0,83,0.00,,,0.00,WSDL version 420,2013-10-19 11:29:00,
2013-10-19 07:35:00,43.7,39.0,29.88,WNW,293,0.0,0.0,83,0.00,,,0.00,WSDL version 420,2013-10-19 11:35:00,
2013-10-19 07:41:00,43.6,38.9,29.91,WNW,293,0.0,0.0,83,0.00,,,0.00,WSDL version 420,2013-10-19 11:41:00,
2013-10-19 07:47:00,43.6,38.9,29.91,WNW,293,0.0,0.0,83,0.00,,,0.00,WSDL version 420,2013-10-19 11:47:00,
2013-10-19 07:53:00,43.8,39.1,29.91,WNW,293,0.0,0.0,83,0.00,,,0.00,WSDL version 420,2013-10-19 11:53:00,
2013-10-19 07:59:00,44.1,39.0,29.91,WNW,293,0.0,0.0,82,0.00,,,0.00,WSDL version 420,2013-10-19 11:59:00,
2013-10-19 08:05:00,44.2,39.3,29.91,WNW,293,0.0,0.0,82,0.00,,,0.00,WSDL version 420,2013-10-19 12:05:00,
2013-10-19 08:11:00,44.2,39.0,29.91,WNW,293,0.0,0.0,81,0.00,,,0.00,WSDL version 420,2013-10-19 12:11:00,
2013-10-19 08:17:00,44.4,39.0,29.91,WNW,293,0.0,0.0,81,0.00,,,0.00,WSDL version 420,2013-10-19 12:17:00,
2013-10-19 08:23:00,44.6,39.1,29.91,WNW,293,0.0,0.0,80,0.00,,,0.00,WSDL version 420,2013-10-19 12:23:00,
2013-10-19 08:29:00,44.7,39.0,29.91,WNW,293,0.0,0.0,80,0.00,,,0.00,WSDL version 420,2013-10-19 12:29:00,
2013-10-19 08:35:00,45.1,39.4,29.91,SSE,158,0.0,0.0,81,0.00,,,0.00,WSDL version 420,2013-10-19 12:35:00,
2013-10-19 08:41:00,45.6,40.2,29.91,ENE,60,1.3,1.3,82,0.00,,,0.00,WSDL version 420,2013-10-19 12:41:00,
2013-10-19 08:47:00,46.2,40.9,29.91,ESE,105,1.3,1.3,81,0.00,,,0.00,WSDL version 420,2013-10-19 12:47:00,
2013-10-19 08:53:00,46.8,41.6,29.91,SSE,165,0.0,1.3,82,0.00,,,0.00,WSDL version 420,2013-10-19 12:53:00,
2013-10-19 08:59:00,47.4,42.2,29.91,South,180,0.0,0.0,82,0.00,,,0.00,WSDL version 420,2013-10-19 12:59:00,
2013-10-19 09:05:00,48.0,42.7,29.91,South,180,0.0,0.0,81,0.00,,,0.00,WSDL version 420,2013-10-19 13:05:00,
2013-10-19 09:12:00,48.7,43.2,29.91,North,-999,-999.0,-999.0,81,0.00,,,0.00,WSDL version 420,2013-10-19 13:12:00,
2013-10-19 09:18:00,49.5,44.0,29.91,SE,135,0.0,0.0,81,0.00,,,0.00,WSDL version 420,2013-10-19 13:18:00,
2013-10-19 09:24:00,50.1,44.4,29.91,SE,135,0.0,0.0,80,0.00,,,0.00,WSDL version 420,2013-10-19 13:24:00,
2013-10-19 09:30:00,50.8,44.6,29.91,SE,135,0.0,0.0,79,0.00,,,0.00,WSDL version 420,2013-10-19 13:30:00,
2013-10-19 09:36:00,51.6,44.9,29.91,SE,135,0.0,0.0,76,0.00,,,0.00,WSDL version 420,2013-10-19 13:36:00,
2013-10-19 09:42:00,52.3,45.0,29.91,SE,135,0.0,0.0,76,0.00,,,0.00,WSDL version 420,2013-10-19 13:42:00,
2013-10-19 09:48:00,53.0,45.2,29.91,SSE,158,0.0,0.0,74,0.00,,,0.00,WSDL version 420,2013-10-19 13:48:00,
2013-10-19 09:54:00,53.9,45.2,29.91,SSW,203,0.9,0.9,71,0.00,,,0.00,WSDL version 420,2013-10-19 13:54:00,
2013-10-19 10:00:00,54.2,45.0,29.91,NE,45,0.0,1.3,70,0.00,,,0.00,WSDL version 420,2013-10-19 14:00:00,
2013-10-19 10:06:00,54.9,45.1,29.91,NE,45,0.0,1.3,69,0.00,,,0.00,WSDL version 420,2013-10-19 14:06:00,
2013-10-19 10:12:00,55.7,45.1,29.88,SSE,150,0.0,0.0,67,0.00,,,0.00,WSDL version 420,2013-10-19 14:12:00,
2013-10-19 10:18:00,56.2,45.3,29.88,South,180,0.6,1.1,66,0.00,,,0.00,WSDL version 420,2013-10-19 14:18:00,
2013-10-19 10:24:00,56.8,45.2,29.88,SSW,203,1.0,1.1,63,0.00,,,0.00,WSDL version 420,2013-10-19 14:24:00,
2013-10-19 10:30:00,57.9,45.5,29.88,SSE,158,0.0,1.1,63,0.00,,,0.00,WSDL version 420,2013-10-19 14:30:00,
2013-10-19 10:36:00,58.0,45.3,29.88,SSE,158,0.0,0.0,63,0.00,,,0.00,WSDL version 420,2013-10-19 14:36:00,
2013-10-19 10:42:00,58.0,45.9,29.88,NE,45,2.5,2.5,64,0.00,,,0.00,WSDL version 420,2013-10-19 14:42:00,
2013-10-19 10:48:00,59.4,46.7,29.88,NE,45,2.5,2.5,62,0.00,,,0.00,WSDL version 420,2013-10-19 14:48:00,
2013-10-19 10:54:00,59.9,46.1,29.88,NE,45,2.5,2.5,58,0.00,,,0.00,WSDL version 420,2013-10-19 14:54:00,
2013-10-19 11:00:00,60.0,45.8,29.88,North,-999,-999.0,-999.0,59,0.00,,,0.00,WSDL version 420,2013-10-19 15:00:00,
2013-10-19 11:06:00,60.6,45.8,29.88,North,-999,-999.0,-999.0,57,0.00,,,0.00,WSDL version 420,2013-10-19 15:06:00,
2013-10-19 11:12:00,61.3,45.5,29.88,SE,135,2.5,2.5,55,0.00,,,0.00,WSDL version 420,2013-10-19 15:12:00,
2013-10-19 11:18:00,62.0,45.5,29.88,SE,135,2.5,2.5,54,0.00,,,0.00,WSDL version 420,2013-10-19 15:18:00,
2013-10-19 11:24:00,61.6,44.9,29.88,SE,135,2.5,2.5,52,0.00,,,0.00,WSDL version 420,2013-10-19 15:24:00,
2013-10-19 11:30:00,61.9,44.1,29.88,North,-999,-999.0,-999.0,52,0.00,,,0.00,WSDL version 420,2013-10-19 15:30:00,
2013-10-19 11:36:00,62.5,44.0,29.88,North,-999,-999.0,-999.0,50,0.00,,,0.00,WSDL version 420,2013-10-19 15:36:00,
2013-10-19 11:42:00,62.2,43.7,29.88,South,180,1.6,1.6,51,0.00,,,0.00,WSDL version 420,2013-10-19 15:42:00,
2013-10-19 11:48:00,62.3,43.1,29.88,NE,45,3.1,3.1,48,0.00,,,0.00,WSDL version 420,2013-10-19 15:48:00,
2013-10-19 11:54:00,63.1,43.7,29.88,NE,45,3.1,3.1,48,0.00,,,0.00,WSDL version 420,2013-10-19 15:54:00,
2013-10-19 12:00:00,63.0,43.2,29.88,NE,45,3.1,3.1,50,0.00,,,0.00,WSDL version 420,2013-10-19 16:00:00,
2013-10-19 12:06:00,62.9,42.6,29.88,SE,135,0.9,3.1,47,0.00,,,0.00,WSDL version 420,2013-10-19 16:06:00,
2013-10-19 12:13:00,62.8,42.8,29.88,SE,135,0.9,0.9,48,0.00,,,0.00,WSDL version 420,2013-10-19 16:13:00,
2013-10-19 12:19:00,63.1,43.2,29.88,SW,236,2.0,2.0,48,0.00,,,0.00,WSDL version 420,2013-10-19 16:19:00,
2013-10-19 12:25:00,62.5,42.3,29.88,South,188,2.8,3.6,48,0.00,,,0.00,WSDL version 420,2013-10-19 16:25:00,
2013-10-19 12:31:00,62.2,41.0,29.88,SSW,203,3.6,3.6,46,0.00,,,0.00,WSDL version 420,2013-10-19 16:31:00,
2013-10-19 12:37:00,62.4,41.7,29.88,SSE,158,5.4,5.4,47,0.00,,,0.00,WSDL version 420,2013-10-19 16:37:00,
2013-10-19 12:43:00,62.7,41.8,29.85,SSE,158,5.4,5.4,46,0.00,,,0.00,WSDL version 420,2013-10-19 16:43:00,
2013-10-19 12:49:00,63.4,42.6,29.85,SSE,158,5.4,5.4,47,-99.99,,,-99.99,WSDL version 420,2013-10-19 16:49:00,
2013-10-19 12:55:00,62.9,41.4,29.85,North,-999,-999.0,-999.0,45,-99.99,,,-99.99,WSDL version 420,2013-10-19 16:55:00,
2013-10-19 13:01:00,63.6,42.7,29.85,North,-999,-999.0,-999.0,46,-99.99,,,-99.99,WSDL version 420,2013-10-19 17:01:00,
2013-10-19 13:07:00,64.2,43.5,29.85,SE,135,1.6,1.6,47,-99.99,,,-99.99,WSDL version 420,2013-10-19 17:07:00,
2013-10-19 13:13:00,63.5,42.1,29.85,SE,135,1.6,1.6,46,-99.99,,,-99.99,WSDL version 420,2013-10-19 17:13:00,
2013-10-19 13:19:00,63.9,42.3,29.85,SSW,195,2.6,3.1,45,-99.99,,,-99.99,WSDL version 420,2013-10-19 17:19:00,
2013-10-19 13:25:00,64.2,42.6,29.85,South,180,1.6,3.1,45,-99.99,,,-99.99,WSDL version 420,2013-10-19 17:25:00,
2013-10-19 13:31:00,64.3,42.4,29.85,South,180,1.6,3.1,45,-99.99,,,-99.99,WSDL version 420,2013-10-19 17:31:00,
2013-10-19 13:37:00,64.2,42.5,29.85,South,180,1.6,1.6,45,-99.99,,,-99.99,WSDL version 420,2013-10-19 17:37:00,
2013-10-19 13:43:00,63.6,41.6,29.83,SSW,203,3.8,3.8,44,-99.99,,,-99.99,WSDL version 420,2013-10-19 17:43:00,
2013-10-19 13:49:00,63.3,41.0,29.83,SSW,203,3.8,3.8,44,-99.99,,,-99.99,WSDL version 420,2013-10-19 17:49:00,
2013-10-19 13:55:00,63.2,40.6,29.83,SSW,203,3.8,3.8,44,-99.99,,,-99.99,WSDL version 420,2013-10-19 17:55:00,
2013-10-19 14:01:00,63.1,40.9,29.83,North,-999,-999.0,-999.0,44,-99.99,,,-99.99,WSDL version 420,2013-10-19 18:01:00,
2013-10-19 14:07:00,62.4,40.2,29.83,North,-999,-999.0,-999.0,44,-99.99,,,-99.99,WSDL version 420,2013-10-19 18:07:00,
2013-10-19 14:13:00,62.5,40.3,29.83,SSW,203,1.6,1.6,44,-99.99,,,-99.99,WSDL version 420,2013-10-19 18:13:00,
2013-10-19 14:19:00,62.7,40.5,29.83,SSW,203,1.6,1.6,44,-99.99,,,-99.99,WSDL version 420,2013-10-19 18:19:00,
2013-10-19 14:25:00,62.1,40.0,29.83,SSW,203,1.6,1.6,44,-99.99,,,-99.99,WSDL version 420,2013-10-19 18:25:00,
2013-10-19 14:32:00,62.1,40.1,29.83,North,-999,-999.0,-999.0,45,0.00,,,0.00,WSDL version 420,2013-10-19 18:32:00,
2013-10-19 14:38:00,62.1,40.2,29.83,North,-999,-999.0,-999.0,44,-99.99,,,-99.99,WSDL version 420,2013-10-19 18:38:00,
2013-10-19 14:44:00,61.5,39.2,29.83,South,180,3.4,3.4,44,-99.99,,,-99.99,WSDL version 420,2013-10-19 18:44:00,
2013-10-19 14:50:00,61.3,39.3,29.83,South,180,3.4,3.4,44,-99.99,,,-99.99,WSDL version 420,2013-10-19 18:50:00,
2013-10-19 14:56:00,61.0,38.9,29.83,South,180,3.4,3.4,44,-99.99,,,-99.99,WSDL version 420,2013-10-19 18:56:00,
2013-10-19 15:02:00,61.0,39.3,29.83,North,-999,-999.0,-999.0,45,-99.99,,,-99.99,WSDL version 420,2013-10-19 19:02:00,
2013-10-19 15:08:00,-999.0,-99.9,29.83,North,-999,-999.0,-999.0,-999,-99.99,,,-99.99,WSDL version 420,2013-10-19 19:08:00,
2013-10-19 15:14:00,60.5,39.1,29.83,North,-999,-999.0,-999.0,45,-99.99,,,-99.99,WSDL version 420,2013-10-19 19:14:00,
2013-10-19 15:20:00,-999.0,-99.9,29.83,South,180,4.0,4.0,-999,-99.99,,,-99.99,WSDL version 420,2013-10-19 19:20:00,
2013-10-19 15:26:00,60.2,38.8,29.83,SE,135,4.3,4.3,45,-99.99,,,-99.99,WSDL version 420,2013-10-19 19:26:00,
2013-10-19 15:32:00,60.0,39.1,29.83,SE,135,4.3,4.3,46,-99.99,,,-99.99,WSDL version 420,2013-10-19 19:32:00,
2013-10-19 15:38:00,59.7,38.9,29.80,North,-999,-999.0,-999.0,46,-99.99,,,-99.99,WSDL version 420,2013-10-19 19:38:00,
2013-10-19 15:44:00,59.7,38.9,29.80,North,-999,-999.0,-999.0,46,-99.99,,,-99.99,WSDL version 420,2013-10-19 19:44:00,
2013-10-19 15:50:00,59.5,38.8,29.80,SSW,203,2.9,2.9,46,-99.99,,,-99.99,WSDL version 420,2013-10-19 19:50:00,
2013-10-19 15:56:00,59.7,39.4,29.83,SSE,158,2.5,2.9,47,-99.99,,,-99.99,WSDL version 420,2013-10-19 19:56:00,
2013-10-19 16:02:00,59.7,39.4,29.83,SSE,158,2.5,2.5,47,-99.99,,,-99.99,WSDL version 420,2013-10-19 20:02:00,
2013-10-19 16:08:00,59.4,39.1,29.80,North,-999,-999.0,-999.0,47,-99.99,,,-99.99,WSDL version 420,2013-10-19 20:08:00,
2013-10-19 16:14:00,59.2,39.5,29.80,SSW,203,2.0,2.5,48,-99.99,,,-99.99,WSDL version 420,2013-10-19 20:14:00,
2013-10-19 16:20:00,59.2,39.6,29.80,SSW,203,2.0,2.0,48,-99.99,,,-99.99,WSDL version 420,2013-10-19 20:20:00,
2013-10-19 16:26:00,59.1,39.6,29.80,East,90,3.6,3.6,48,-99.99,,,-99.99,WSDL version 420,2013-10-19 20:26:00,
2013-10-19 16:32:00,59.2,40.1,29.80,East,90,3.6,3.6,49,-99.99,,,-99.99,WSDL version 420,2013-10-19 20:32:00,
2013-10-19 16:38:00,59.2,40.1,29.80,West,270,2.5,3.6,49,-99.99,,,-99.99,WSDL version 420,2013-10-19 20:38:00,
2013-10-19 16:44:00,59.1,40.3,29.80,SSE,158,0.0,2.5,50,0.00,,,0.00,WSDL version 420,2013-10-19 20:44:00,
2013-10-19 16:50:00,59.0,40.4,29.80,SSE,158,0.0,0.0,50,0.00,,,0.00,WSDL version 420,2013-10-19 20:50:00,
2013-10-19 16:56:00,59.0,40.4,29.77,East,90,2.7,2.7,50,-99.99,,,-99.99,WSDL version 420,2013-10-19 20:56:00,
2013-10-19 17:02:00,58.7,40.7,29.77,SSE,158,3.6,3.6,51,-99.99,,,-99.99,WSDL version 420,2013-10-19 21:02:00,
2013-10-19 17:08:00,58.6,40.6,29.77,SSE,158,3.6,3.6,52,0.00,,,0.00,WSDL version 420,2013-10-19 21:08:00,
2013-10-19 17:14:00,58.5,40.9,29.77,SSE,158,3.6,3.6,52,-99.99,,,-99.99,WSDL version 420,2013-10-19 21:14:00,
2013-10-19 17:20:00,58.5,41.0,29.77,East,90,4.0,4.0,52,-99.99,,,-99.99,WSDL version 420,2013-10-19 21:20:00,
2013-10-19 17:27:00,58.4,41.0,29.74,NW,315,0.9,4.0,52,-99.99,,,-99.99,WSDL version 420,2013-10-19 21:27:00,
2013-10-19 17:33:00,58.1,40.9,29.74,West,281,0.4,1.6,53,-99.99,,,-99.99,WSDL version 420,2013-10-19 21:33:00,
2013-10-19 17:39:00,58.1,41.6,29.77,NW,315,0.0,0.9,54,0.00,,,0.00,WSDL version 420,2013-10-19 21:39:00,
2013-10-19 17:45:00,58.2,41.9,29.77,NW,315,0.0,0.0,55,-99.99,,,-99.99,WSDL version 420,2013-10-19 21:45:00,
2013-10-19 17:51:00,57.9,42.2,29.77,NE,45,1.3,1.3,56,0.00,,,0.00,WSDL version 420,2013-10-19 21:51:00,
2013-10-19 17:57:00,57.7,41.7,29.77,NE,45,1.3,1.3,55,0.00,,,0.00,WSDL version 420,2013-10-19 21:57:00,
2013-10-19 18:03:00,57.7,41.7,29.77,NE,45,1.3,1.3,55,-99.99,,,-99.99,WSDL version 420,2013-10-19 22:03:00,
2013-10-19 18:09:00,57.6,41.6,29.77,West,270,3.1,3.1,55,-99.99,,,-99.99,WSDL version 420,2013-10-19 22:09:00,
2013-10-19 18:15:00,57.6,41.7,29.77,West,270,3.1,3.1,56,-99.99,,,-99.99,WSDL version 420,2013-10-19 22:15:00,
2013-10-19 18:21:00,57.5,41.9,29.77,North,-999,-999.0,-999.0,57,-99.99,,,-99.99,WSDL version 420,2013-10-19 22:21:00,
2013-10-19 18:27:00,57.3,42.2,29.77,North,-999,-999.0,-999.0,57,-99.99,,,-99.99,WSDL version 420,2013-10-19 22:27:00,
2013-10-19 18:33:00,57.1,42.2,29.77,North,-999,-999.0,-999.0,58,-99.99,,,-99.99,WSDL version 420,2013-10-19 22:33:00,
2013-10-19 18:39:00,56.9,42.3,29.77,North,-999,-999.0,-999.0,58,-99.99,,,-99.99,WSDL version 420,2013-10-19 22:39:00,
2013-10-19 18:45:00,56.8,42.2,29.77,North,-999,-999.0,-999.0,58,-99.99,,,-99.99,WSDL version 420,2013-10-19 22:45:00,
2013-10-19 18:51:00,56.8,42.8,29.77,North,-999,-999.0,-999.0,61,-99.99,,,-99.99,WSDL version 420,2013-10-19 22:51:00,
2013-10-19 18:57:00,56.5,42.9,29.77,North,-999,-999.0,-999.0,60,-99.99,,,-99.99,WSDL version 420,2013-10-19 22:57:00,
2013-10-19 19:03:00,56.5,43.0,29.77,North,-999,-999.0,-999.0,60,0.00,,,0.00,WSDL version 420,2013-10-19 23:03:00,
2013-10-19 19:08:00,56.6,42.9,29.77,North,-999,-999.0,-999.0,60,-99.99,,,-99.99,WSDL version 420,2013-10-19 23:08:00,
2013-10-19 19:14:00,56.3,43.9,29.77,North,-999,-999.0,-999.0,65,-99.99,,,-99.99,WSDL version 420,2013-10-19 23:14:00,
2013-10-19 19:20:00,56.1,44.7,29.77,North,-999,-999.0,-999.0,65,-99.99,,,-99.99,WSDL version 420,2013-10-19 23:20:00,
2013-10-19 19:26:00,55.9,45.1,29.77,North,-999,-999.0,-999.0,67,-99.99,,,-99.99,WSDL version 420,2013-10-19 23:26:00,
2013-10-19 19:32:00,55.6,45.3,29.77,North,-999,-999.0,-999.0,69,-99.99,,,-99.99,WSDL version 420,2013-10-19 23:32:00,
2013-10-19 19:38:00,55.2,44.5,29.74,North,-999,-999.0,-999.0,67,0.00,,,0.00,WSDL version 420,2013-10-19 23:38:00,
2013-10-19 19:44:00,55.3,44.8,29.74,North,-999,-999.0,-999.0,68,0.00,,,0.00,WSDL version 420,2013-10-19 23:44:00,
2013-10-19 19:50:00,55.3,45.0,29.74,North,-999,-999.0,-999.0,69,0.00,,,0.00,WSDL version 420,2013-10-19 23:50:00,
2013-10-19 19:56:00,55.2,45.3,29.77,North,-999,-999.0,-999.0,69,0.00,,,0.00,WSDL version 420,2013-10-19 23:56:00,
2013-10-19 20:02:00,55.5,45.5,29.77,North,-999,-999.0,-999.0,68,0.00,,,0.00,WSDL version 420,2013-10-20 00:02:00,
2013-10-19 20:08:00,55.6,45.5,29.74,North,-999,-999.0,-999.0,68,0.00,,,0.00,WSDL version 420,2013-10-20 00:08:00,
2013-10-19 20:14:00,55.3,44.8,29.74,North,-999,-999.0,-999.0,68,0.00,,,0.00,WSDL version 420,2013-10-20 00:14:00,
2013-10-19 20:21:00,55.2,44.9,29.74,North,-999,-999.0,-999.0,68,0.00,,,0.00,WSDL version 420,2013-10-20 00:21:00,
2013-10-19 20:27:00,54.9,44.7,29.74,SSW,203,0.0,0.0,68,0.00,,,0.00,WSDL version 420,2013-10-20 00:27:00,
2013-10-19 20:33:00,54.9,44.8,29.74,SSW,203,0.0,0.0,69,0.00,,,0.00,WSDL version 420,2013-10-20 00:33:00,
2013-10-19 20:39:00,54.8,45.0,29.74,SSW,203,0.0,0.0,69,0.00,,,0.00,WSDL version 420,2013-10-20 00:39:00,
2013-10-19 20:45:00,55.0,45.4,29.74,North,-999,-999.0,-999.0,70,0.00,,,0.00,WSDL version 420,2013-10-20 00:45:00,
2013-10-19 20:51:00,55.0,45.4,29.74,North,-999,-999.0,-999.0,70,0.00,,,0.00,WSDL version 420,2013-10-20 00:51:00,
2013-10-19 20:57:00,55.0,45.4,29.74,North,-999,-999.0,-999.0,70,0.00,,,0.00,WSDL version 420,2013-10-20 00:57:00,
2013-10-19 21:03:00,55.2,45.9,29.74,North,-999,-999.0,-999.0,71,0.00,,,0.00,WSDL version 420,2013-10-20 01:03:00,
2013-10-19 21:09:00,55.2,45.7,29.74,North,-999,-999.0,-999.0,70,0.00,,,0.00,WSDL version 420,2013-10-20 01:09:00,
2013-10-19 21:15:00,55.2,45.9,29.74,North,-999,-999.0,-999.0,71,0.00,,,0.00,WSDL version 420,2013-10-20 01:15:00,
2013-10-19 21:21:00,55.3,46.0,29.74,North,-999,-999.0,-999.0,71,0.00,,,0.00,WSDL version 420,2013-10-20 01:21:00,
2013-10-19 21:27:00,55.5,46.2,29.74,North,-999,-999.0,-999.0,71,0.00,,,0.00,WSDL version 420,2013-10-20 01:27:00,
2013-10-19 21:33:00,55.3,46.1,29.74,North,-999,-999.0,-999.0,71,0.00,,,0.00,WSDL version 420,2013-10-20 01:33:00,
2013-10-19 21:39:00,55.2,46.2,29.74,North,-999,-999.0,-999.0,71,0.00,,,0.00,WSDL version 420,2013-10-20 01:39:00,
2013-10-19 21:45:00,55.3,46.2,29.74,North,-999,-999.0,-999.0,71,0.00,,,0.00,WSDL version 420,2013-10-20 01:45:00,
2013-10-19 21:51:00,55.3,46.4,29.74,North,-999,-999.0,-999.0,72,0.00,,,0.00,WSDL version 420,2013-10-20 01:51:00,
2013-10-19 21:57:00,55.4,46.5,29.74,North,-999,-999.0,-999.0,72,0.00,,,0.00,WSDL version 420,2013-10-20 01:57:00,
2013-10-19 22:03:00,55.3,46.5,29.74,North,-999,-999.0,-999.0,73,0.00,,,0.00,WSDL version 420,2013-10-20 02:03:00,
2013-10-19 22:09:00,55.0,46.2,29.74,North,-999,-999.0,-999.0,72,0.00,,,0.00,WSDL version 420,2013-10-20 02:09:00,
2013-10-19 22:15:00,55.0,46.8,29.74,North,-999,-999.0,-999.0,74,0.00,,,0.00,WSDL version 420,2013-10-20 02:15:00,
2013-10-19 22:21:00,54.9,47.0,29.74,North,-999,-999.0,-999.0,75,0.00,,,0.00,WSDL version 420,2013-10-20 02:21:00,
2013-10-19 22:27:00,54.3,46.7,29.74,North,-999,-999.0,-999.0,75,0.00,,,0.00,WSDL version 420,2013-10-20 02:27:00,
2013-10-19 22:33:00,54.0,46.9,29.74,North,-999,-999.0,-999.0,77,0.00,,,0.00,WSDL version 420,2013-10-20 02:33:00,
2013-10-19 22:39:00,53.9,47.2,29.74,North,-999,-999.0,-999.0,79,0.00,,,0.00,WSDL version 420,2013-10-20 02:39:00,
2013-10-19 22:45:00,53.9,48.7,29.74,North,-999,-999.0,-999.0,83,0.00,,,0.00,WSDL version 420,2013-10-20 02:45:00,
2013-10-19 22:51:00,54.0,49.4,29.74,North,-999,-999.0,-999.0,84,0.04,,,0.04,WSDL version 420,2013-10-20 02:51:00,
2013-10-19 22:57:00,53.8,49.3,29.74,North,-999,-999.0,-999.0,84,0.04,,,0.04,WSDL version 420,2013-10-20 02:57:00,
2013-10-19 23:03:00,53.7,49.4,29.74,North,-999,-999.0,-999.0,84,0.08,,,0.08,WSDL version 420,2013-10-20 03:03:00,
2013-10-19 23:10:00,53.6,49.3,29.74,North,-999,-999.0,-999.0,84,0.08,,,0.08,WSDL version 420,2013-10-20 03:10:00,
2013-10-19 23:16:00,53.5,49.1,29.74,North,-999,-999.0,-999.0,86,0.08,,,0.08,WSDL version 420,2013-10-20 03:16:00,
2013-10-19 23:22:00,53.5,49.7,29.74,North,-999,-999.0,-999.0,88,0.12,,,0.12,WSDL version 420,2013-10-20 03:22:00,
2013-10-19 23:28:00,53.4,49.5,29.71,North,-999,-999.0,-999.0,87,0.12,,,0.12,WSDL version 420,2013-10-20 03:28:00,
2013-10-19 23:34:00,53.5,49.8,29.71,North,-999,-999.0,-999.0,88,0.12,,,0.12,WSDL version 420,2013-10-20 03:34:00,
2013-10-19 23:40:00,53.6,50.3,29.71,North,-999,-999.0,-999.0,88,0.12,,,0.12,WSDL version 420,2013-10-20 03:40:00,
2013-10-19 23:46:00,53.5,50.3,29.71,North,-999,-999.0,-999.0,89,0.12,,,0.12,WSDL version 420,2013-10-20 03:46:00,
2013-10-19 23:52:00,53.4,50.1,29.71,North,-999,-999.0,-999.0,89,0.08,,,0.12,WSDL version 420,2013-10-20 03:52:00,
2013-10-19 23:58:00,53.2,49.4,29.68,North,-999,-999.0,-999.0,87,0.08,,,0.12,WSDL version 420,2013-10-20 03:58:00,